New Lebanon, Indiana
Current Conditions -  °F | °C
As of 6:15 PM on Sunday 21 Dec 2014 (Local Time) from KRSV Reporting Station
Clear Clear  
Wind Chill: 33°   Ceiling: Unl
Heat Index: 33°   Visibility: 10mi
Dew Point: 30°   Wind: 3mph
Humidity: 87%   Direction: 120°ESE
Pressure: 30.12"   Gusts: NA
Location:  39.04°N, 87.47°W
Report Text: KRSV 212315Z AUTO 12003KT 10SM CLR 01/M01 A3012 RMK AO2 T00071012
Loading
Personal Weather Stations






























Interactive Weather Map New forecast layout! Learn more

10-Day Weather Forecast

Advertisements
Track Severe Weather on mobile